This is the latest recevied weather packets stored in our database for station/object DO7CRZ-12. If no packets are shown the sender has not sent any weather packets the latest 10 day(s).
| Time | Temp. | Humidity | Pressure | Rain* | Wind** | Luminosity | Snow |
|---|---|---|---|---|---|---|---|
| 1778245636 | 13.33° C | 74% | 1019.3 hPa | 0 mm | - | 53 W/m² | - |
| 1778245048 | 13.89° C | 74% | 1019.2 hPa | 0 mm | - | 74 W/m² | - |
| 1778244445 | 13.89° C | 75% | 1019.2 hPa | 0 mm | - | 74 W/m² | - |
| 1778243842 | 13.89° C | 78% | 1019.1 hPa | 0 mm | - | 119 W/m² | - |
| 1778243239 | 12.78° C | 83% | 1019.3 hPa | 0 mm | - | 110 W/m² | - |
| 1778242636 | 11.67° C | 85% | 1019.4 hPa | 0 mm | - | 104 W/m² | - |
| 1778242048 | 11.11° C | 85% | 1019.4 hPa | 0 mm | - | 49 W/m² | - |
| 1778241445 | 11.11° C | 85% | 1019.4 hPa | 0 mm | - | 29 W/m² | - |
| 1778240842 | 11.11° C | 84% | 1019.4 hPa | 0 mm | - | 22 W/m² | - |
| 1778239636 | 11.11° C | 84% | 1019.3 hPa | 0 mm | - | 33 W/m² | - |
| 1778239048 | 11.11° C | 83% | 1019.4 hPa | 0 mm | - | 29 W/m² | - |
| 1778238446 | 11.67° C | 83% | 1019.4 hPa | 0 mm | - | 30 W/m² | - |
| 1778237843 | 11.67° C | 83% | 1019.3 hPa | 0 mm | - | 46 W/m² | - |
| 1778237240 | 11.67° C | 83% | 1019.3 hPa | 0 mm | - | 44 W/m² | - |
| 1778236637 | 11.67° C | 83% | 1019.3 hPa | 0 mm | - | 33 W/m² | - |
| 1778236049 | 11.67° C | 84% | 1019.2 hPa | 0 mm | - | 76 W/m² | - |
| 1778235447 | 11.67° C | 84% | 1019.3 hPa | 0 mm | - | 57 W/m² | - |
| 1778234844 | 11.67° C | 84% | 1019.3 hPa | 0 mm | - | 37 W/m² | - |
| 1778234241 | 11.67° C | 83% | 1019.2 hPa | 0 mm | - | 38 W/m² | - |
| 1778233638 | 12.22° C | 82% | 1019.2 hPa | 0 mm | - | 38 W/m² | - |
| 1778233035 | 12.78° C | 82% | 1019.1 hPa | 0 mm | - | 45 W/m² | - |
| 1778232447 | 12.78° C | 83% | 1019.1 hPa | 0 mm | - | 85 W/m² | - |
| 1778231242 | 11.67° C | 87% | 1019.1 hPa | 0 mm | - | 66 W/m² | - |
| 1778230639 | 11.11° C | 89% | 1018.9 hPa | 0 mm | - | 66 W/m² | - |
| 1778230036 | 11.11° C | 90% | 1018.9 hPa | 0 mm | - | 63 W/m² | - |
* Rain latest hour (hover to see other rain measurements)
** Current wind speed in m/s (hover to see current wind gust speed)